Terminal Aerodrome Forecast
Issued by NWS Des Moines, IA

Home | Current Version | Previous Version | Text Only | Print | Product List | Glossary On
Versions: 1 2 3 4 5 6 7 8 9 10 11 12 13 14 15 16
283
FTUS43 KDMX 221123
TAFALO
TAF
KALO 221123Z 2212/2312 VRB03KT P6SM SKC
     FM221900 19007KT P6SM SCT200
     FM230400 19004KT P6SM FEW070 BKN130
     FM231000 21005KT P6SM BKN070=

USA.gov is the U.S. government's official web portal to all federal, state and local government web resources and services.